Time;durP1;ratioP1;P1;durP2;ratioP2;P2;SDS_P1;SDS_P2;PMS_P1;PMS_P2;Temp;Humidity;BMP_temperature;BMP_pressure;BME280_temperature;BME280_humidity;BME280_pressure;Samples;Min_cycle;Max_cycle;Signal;HPM_P1;HPM_P2
2023/06/10 00:01:18;;;;;;;17.23;14.65;;;;;;;17.18;100.00;99444.84;5052279;28;20032;-77
2023/06/10 00:03:44;;;;;;;15.05;13.55;;;;;;;17.09;100.00;99440.28;5052228;28;20029;-77
2023/06/10 00:06:09;;;;;;;16.20;14.35;;;;;;;17.08;100.00;99423.69;5051985;28;20461;-77
2023/06/10 00:08:34;;;;;;;14.50;13.20;;;;;;;17.15;100.00;99439.81;5050919;28;20017;-77
2023/06/10 00:11:00;;;;;;;14.50;13.18;;;;;;;17.12;100.00;99446.16;5051688;28;20059;-77
2023/06/10 00:13:25;;;;;;;15.05;13.65;;;;;;;17.24;100.00;99462.81;5051954;28;20059;-77
2023/06/10 00:15:51;;;;;;;14.48;12.98;;;;;;;17.23;100.00;99462.91;5051787;28;20029;-77
2023/06/10 00:18:17;;;;;;;13.98;12.68;;;;;;;17.09;100.00;99440.28;5052278;28;20024;-77
2023/06/10 00:20:42;;;;;;;14.05;12.65;;;;;;;17.15;100.00;99450.34;5052084;28;20029;-77
2023/06/10 00:23:09;;;;;;;14.32;12.90;;;;;;;17.00;100.00;99420.78;5051772;28;20048;-77
2023/06/10 00:25:34;;;;;;;15.10;13.57;;;;;;;17.14;100.00;99433.72;5051952;28;20381;-77
2023/06/10 00:28:00;;;;;;;15.38;13.55;;;;;;;17.27;100.00;99457.28;5052078;28;20025;-77
2023/06/10 00:30:26;;;;;;;14.88;13.40;;;;;;;17.24;100.00;99443.56;5051682;28;20033;-77
2023/06/10 00:32:51;;;;;;;13.25;11.98;;;;;;;17.39;100.00;99461.59;5051772;28;20029;-78
2023/06/10 00:35:17;;;;;;;14.23;12.88;;;;;;;17.46;100.00;99459.34;5051884;28;20021;-77
2023/06/10 00:37:42;;;;;;;14.65;13.18;;;;;;;17.30;100.00;99432.53;5051814;28;20384;-77
2023/06/10 00:40:11;;;;;;;14.68;13.38;;;;;;;17.38;100.00;99445.94;5051415;28;20087;-77
2023/06/10 00:42:37;;;;;;;15.07;13.55;;;;;;;17.35;100.00;99436.47;5051822;28;20461;-77
2023/06/10 00:45:02;;;;;;;13.70;12.48;;;;;;;17.34;100.00;99433.97;5051609;28;20033;-77
2023/06/10 00:47:28;;;;;;;15.23;13.68;;;;;;;17.49;100.00;99468.78;5051886;28;20094;-77
2023/06/10 00:49:54;;;;;;;14.00;12.70;;;;;;;17.47;100.00;99466.28;5051737;28;20036;-77
2023/06/10 00:52:23;;;;;;;15.52;13.93;;;;;;;17.49;100.00;99463.50;5051496;28;20155;-77
2023/06/10 00:54:49;;;;;;;15.73;14.25;;;;;;;17.50;100.00;99465.22;5051681;28;20423;-77
2023/06/10 00:57:15;;;;;;;15.70;14.10;;;;;;;17.45;100.00;99455.88;5053722;28;20025;-77
2023/06/10 00:59:43;;;;;;;15.95;14.55;;;;;;;17.32;100.00;99433.25;5055163;28;20037;-77
2023/06/10 01:02:09;;;;;;;14.38;12.95;;;;;;;17.50;100.00;99463.41;5055067;28;20036;-77
2023/06/10 01:04:34;;;;;;;14.45;13.05;;;;;;;17.53;100.00;99464.94;5055338;28;20036;-77
2023/06/10 01:07:14;;;;;;;15.65;14.20;;;;;;;17.37;100.00;99441.63;5055000;28;20036;-77
2023/06/10 01:09:56;;;;;;;15.20;13.70;;;;;;;17.46;100.00;99460.19;5055187;28;20076;-77
2023/06/10 01:12:37;;;;;;;15.70;14.23;;;;;;;17.53;100.00;99465.81;5055518;28;20068;-77
2023/06/10 01:15:04;;;;;;;15.63;14.10;;;;;;;17.45;100.00;99455.03;5054873;28;20021;-77
2023/06/10 01:17:30;;;;;;;16.23;14.50;;;;;;;17.48;100.00;99451.31;5055052;28;20032;-77
2023/06/10 01:19:59;;;;;;;17.90;15.52;;;;;;;17.38;100.00;99441.50;5054792;28;20070;-77
2023/06/10 01:22:28;;;;;;;17.38;14.75;;;;;;;17.53;100.00;99447.38;5054460;28;20078;-77
2023/06/10 01:24:58;;;;;;;15.90;14.45;;;;;;;17.52;100.00;99444.84;5054762;28;20025;-78
2023/06/10 01:27:29;;;;;;;15.55;14.05;;;;;;;17.57;100.00;99450.59;5054668;28;20381;-77
2023/06/10 01:30:11;;;;;;;16.63;14.90;;;;;;;17.54;100.00;99448.22;5054359;28;20082;-77
2023/06/10 01:32:49;;;;;;;16.40;14.73;;;;;;;17.45;100.00;99429.56;5055871;28;20166;-78
2023/06/10 01:35:16;;;;;;;15.98;14.57;;;;;;;17.52;100.00;99450.13;5054224;28;20068;-77
2023/06/10 01:37:45;;;;;;;15.77;14.27;;;;;;;17.36;100.00;99419.75;5054488;28;20416;-77
2023/06/10 01:40:12;;;;;;;16.05;14.50;;;;;;;17.63;100.00;99460.66;5054066;28;20037;-77
2023/06/10 01:42:37;;;;;;;19.52;15.82;;;;;;;17.51;100.00;99437.91;5054563;28;20033;-77
2023/06/10 01:45:03;;;;;;;15.75;14.25;;;;;;;17.64;100.00;99463.16;5053867;28;20422;-77
2023/06/10 01:47:29;;;;;;;15.88;14.30;;;;;;;17.67;100.00;99472.63;5054046;28;20641;-77
2023/06/10 01:49:54;;;;;;;16.23;14.75;;;;;;;17.56;100.00;99447.13;5054329;28;20025;-77
2023/06/10 01:52:20;;;;;;;15.98;14.50;;;;;;;17.56;100.00;99452.38;5053983;28;20032;-77
2023/06/10 01:54:45;;;;;;;16.50;15.05;;;;;;;17.54;100.00;99440.31;5054034;28;20028;-77
2023/06/10 01:57:10;;;;;;;17.77;15.98;;;;;;;17.59;100.00;99457.41;5053824;28;20025;-77
2023/06/10 01:59:37;;;;;;;16.45;14.85;;;;;;;17.59;100.00;99452.16;5053826;28;20034;-77
2023/06/10 02:02:03;;;;;;;17.52;15.82;;;;;;;17.73;100.00;99468.66;5053468;28;20134;-77
2023/06/10 02:04:28;;;;;;;17.08;15.35;;;;;;;17.73;100.00;99479.19;5054053;28;20099;-77
2023/06/10 02:06:55;;;;;;;17.02;15.40;;;;;;;17.69;100.00;99481.22;5053975;28;20384;-77
2023/06/10 02:09:20;;;;;;;16.10;14.65;;;;;;;17.62;100.00;99467.72;5052828;28;20361;-77
2023/06/10 02:11:46;;;;;;;18.92;16.67;;;;;;;17.65;100.00;99475.34;5053696;28;20092;-77
2023/06/10 02:14:11;;;;;;;17.90;15.93;;;;;;;17.61;100.00;99463.41;5053305;28;20029;-77
2023/06/10 02:16:36;;;;;;;17.83;16.23;;;;;;;17.62;100.00;99466.88;5053548;28;20037;-77
2023/06/10 02:19:05;;;;;;;19.17;17.38;;;;;;;17.57;100.00;99458.50;5053525;28;20025;-77
2023/06/10 02:21:31;;;;;;;18.42;16.58;;;;;;;17.62;100.00;99478.25;5053603;28;20112;-77
2023/06/10 02:23:56;;;;;;;17.42;15.63;;;;;;;17.53;100.00;99452.66;5053921;28;20053;-77
2023/06/10 02:26:22;;;;;;;19.17;16.92;;;;;;;17.54;100.00;99464.03;5053498;28;20411;-77
2023/06/10 02:28:48;;;;;;;20.45;18.35;;;;;;;17.61;100.00;99481.84;5053673;28;20020;-77
2023/06/10 02:31:14;;;;;;;18.02;16.25;;;;;;;17.45;100.00;99449.78;5053234;28;20079;-77
2023/06/10 02:33:40;;;;;;;18.75;16.85;;;;;;;17.47;100.00;99463.66;5053468;28;20051;-77
2023/06/10 02:36:06;;;;;;;19.77;17.73;;;;;;;17.42;100.00;99455.28;5053588;28;20025;-77
2023/06/10 02:38:31;;;;;;;18.40;16.70;;;;;;;17.46;100.00;99468.06;5053419;28;20468;-77
2023/06/10 02:40:56;;;;;;;20.50;18.42;;;;;;;17.59;100.00;99477.66;5053368;28;20025;-77
2023/06/10 02:43:22;;;;;;;20.35;18.35;;;;;;;17.52;100.00;99476.44;5053219;28;20021;-77
2023/06/10 02:45:47;;;;;;;21.15;18.67;;;;;;;17.50;100.00;99475.75;5053575;28;20053;-77
2023/06/10 02:48:12;;;;;;;21.25;19.15;;;;;;;17.34;100.00;99452.41;5053446;28;20057;-77
2023/06/10 02:50:40;;;;;;;21.38;19.25;;;;;;;17.41;100.00;99462.34;5053442;28;20060;-77
2023/06/10 02:53:05;;;;;;;20.58;18.60;;;;;;;17.38;100.00;99459.94;5053131;28;20060;-77
2023/06/10 02:55:30;;;;;;;20.80;18.80;;;;;;;17.38;100.00;99459.94;5053122;28;20100;-77
2023/06/10 02:57:56;;;;;;;22.88;20.63;;;;;;;17.42;100.00;99482.44;5053270;28;20064;-77
2023/06/10 03:00:22;;;;;;;25.17;21.63;;;;;;;17.38;100.00;99483.63;5052530;28;20021;-77
2023/06/10 03:02:47;;;;;;;24.05;21.55;;;;;;;17.38;100.00;99491.53;5053299;28;20354;-77
2023/06/10 03:05:13;;;;;;;21.95;20.02;;;;;;;17.29;100.00;99483.50;5052975;28;20021;-77
2023/06/10 03:07:38;;;;;;;24.92;22.52;;;;;;;17.24;100.00;99480.41;5053477;28;20036;-77
2023/06/10 03:10:05;;;;;;;25.35;23.05;;;;;;;17.28;100.00;99498.47;5052663;28;20075;-77
2023/06/10 03:12:30;;;;;;;25.13;20.75;;;;;;;17.18;100.00;99482.53;5052680;28;20064;-77
2023/06/10 03:14:56;;;;;;;24.83;22.33;;;;;;;17.16;100.00;99479.19;5052854;28;20093;-77
2023/06/10 03:17:21;;;;;;;26.75;23.00;;;;;;;17.19;100.00;99489.50;5051339;28;20044;-77
2023/06/10 03:19:46;;;;;;;24.65;22.05;;;;;;;17.25;100.00;99489.97;5052812;28;20047;-77
2023/06/10 03:22:14;;;;;;;24.10;21.55;;;;;;;17.29;100.00;99497.50;5052474;28;20388;-77
2023/06/10 03:24:40;;;;;;;23.77;21.58;;;;;;;17.17;100.00;99477.38;5052734;28;20480;-77
2023/06/10 03:27:09;;;;;;;24.95;22.48;;;;;;;17.17;100.00;99480.03;5052383;28;20108;-77
2023/06/10 03:29:35;;;;;;;24.33;21.92;;;;;;;17.13;100.00;99474.16;5052648;28;20024;-77
2023/06/10 03:32:01;;;;;;;23.25;21.10;;;;;;;17.34;100.00;99495.34;5052734;28;20481;-77
2023/06/10 03:34:26;;;;;;;25.77;23.25;;;;;;;17.23;100.00;99476.06;5052460;28;20048;-77
2023/06/10 03:36:52;;;;;;;25.05;22.80;;;;;;;17.24;100.00;99475.13;5052482;28;20033;-77
2023/06/10 03:39:17;;;;;;;23.67;21.13;;;;;;;17.39;100.00;99501.09;5052090;28;20025;-77
2023/06/10 03:41:42;;;;;;;25.38;22.77;;;;;;;17.40;100.00;99505.44;5052275;28;20035;-77
2023/06/10 03:44:08;;;;;;;23.70;21.40;;;;;;;17.36;100.00;99497.84;5051959;28;20053;-77
2023/06/10 03:46:33;;;;;;;23.33;20.77;;;;;;;17.33;100.00;99490.22;5052367;28;20029;-77
2023/06/10 03:49:00;;;;;;;22.27;20.08;;;;;;;17.41;100.00;99504.47;5052551;28;20036;-77
2023/06/10 03:51:26;;;;;;;21.27;19.27;;;;;;;17.27;100.00;99478.34;5051983;28;20368;-77
2023/06/10 03:53:51;;;;;;;21.42;19.40;;;;;;;17.21;100.00;99474.41;5052260;28;20032;-77
2023/06/10 03:56:16;;;;;;;21.90;19.67;;;;;;;17.45;100.00;99508.53;5052062;28;20021;-77
2023/06/10 03:58:42;;;;;;;19.85;17.83;;;;;;;17.43;100.00;99504.34;5052033;28;20029;-77
2023/06/10 04:01:07;;;;;;;18.50;16.70;;;;;;;17.45;100.00;99508.53;5052499;28;20104;-77
2023/06/10 04:03:33;;;;;;;21.08;18.88;;;;;;;17.40;100.00;99499.31;5052163;28;20030;-77
2023/06/10 04:05:58;;;;;;;19.23;17.35;;;;;;;17.45;100.00;99503.28;5052377;28;20032;-77
2023/06/10 04:08:23;;;;;;;19.08;17.08;;;;;;;17.58;100.00;99520.75;5051998;28;20025;-77
2023/06/10 04:10:49;;;;;;;19.92;17.80;;;;;;;17.63;100.00;99529.97;5052443;28;20074;-77
2023/06/10 04:13:14;;;;;;;17.88;16.17;;;;;;;17.63;100.00;99524.69;5051750;28;20036;-77
2023/06/10 04:15:40;;;;;;;19.13;16.42;;;;;;;17.58;100.00;99515.50;5052117;28;20025;-77
2023/06/10 04:18:06;;;;;;;17.83;15.98;;;;;;;17.54;100.00;99503.53;5051863;28;20029;-77
2023/06/10 04:20:32;;;;;;;18.38;16.50;;;;;;;17.63;100.00;99522.06;5052202;28;20048;-77
2023/06/10 04:22:57;;;;;;;17.52;15.80;;;;;;;17.70;100.00;99532.97;5052077;28;20032;-77
2023/06/10 04:25:24;;;;;;;18.15;16.42;;;;;;;17.58;100.00;99497.88;5051810;28;20036;-77
2023/06/10 04:27:49;;;;;;;18.45;16.70;;;;;;;17.56;100.00;99499.78;5051725;28;20029;-77
2023/06/10 04:30:16;;;;;;;17.52;15.90;;;;;;;17.77;100.00;99535.97;5051686;28;20025;-77
2023/06/10 04:32:41;;;;;;;18.58;16.80;;;;;;;17.69;100.00;99516.31;5055008;28;20083;-77
2023/06/10 04:35:07;;;;;;;17.30;15.80;;;;;;;17.83;100.00;99524.97;5055771;28;20028;-77
2023/06/10 04:37:32;;;;;;;19.50;17.50;;;;;;;17.71;99.97;99500.41;5056149;28;20029;-77
2023/06/10 04:39:59;;;;;;;17.13;15.55;;;;;;;17.90;99.93;99534.06;5055663;28;20029;-77
2023/06/10 04:42:24;;;;;;;17.38;15.57;;;;;;;17.71;99.94;99511.78;5055330;28;20064;-77
2023/06/10 04:44:50;;;;;;;18.25;16.55;;;;;;;17.83;100.00;99532.88;5055804;28;20064;-77
2023/06/10 04:47:17;;;;;;;19.40;17.27;;;;;;;17.78;100.00;99513.94;5055134;28;20028;-77
2023/06/10 04:49:42;;;;;;;18.08;16.17;;;;;;;17.86;100.00;99528.19;5055599;28;20028;-77
2023/06/10 04:52:07;;;;;;;19.13;17.05;;;;;;;17.81;100.00;99511.91;5055249;28;20029;-77
2023/06/10 04:54:33;;;;;;;17.75;15.90;;;;;;;17.87;99.88;99523.78;5055543;28;20021;-77
2023/06/10 04:56:59;;;;;;;14.52;13.02;;;;;;;17.93;99.70;99534.66;5055478;28;20036;-77
2023/06/10 04:59:25;;;;;;;17.38;15.73;;;;;;;18.02;100.00;99534.91;5055334;28;20033;-77
2023/06/10 05:01:50;;;;;;;18.02;15.13;;;;;;;17.88;99.95;99517.53;5055295;28;20027;-77
2023/06/10 05:04:16;;;;;;;18.92;15.30;;;;;;;18.04;100.00;99544.38;5055165;28;20396;-77
2023/06/10 05:06:41;;;;;;;17.58;15.85;;;;;;;17.98;100.00;99533.47;5054012;28;20100;-77
2023/06/10 05:09:06;;;;;;;18.55;16.75;;;;;;;18.00;100.00;99539.47;5055204;28;20032;-77
2023/06/10 05:11:32;;;;;;;17.65;15.85;;;;;;;18.06;100.00;99558.25;5055037;28;20025;-77
2023/06/10 05:13:57;;;;;;;16.58;14.98;;;;;;;18.12;100.00;99564.84;5055212;28;20021;-77
2023/06/10 05:16:22;;;;;;;16.65;15.15;;;;;;;18.06;100.00;99541.59;5054903;28;20104;-77
2023/06/10 05:18:48;;;;;;;18.33;16.52;;;;;;;18.21;100.00;99569.38;5055594;28;20060;-77
2023/06/10 05:21:13;;;;;;;18.05;16.35;;;;;;;18.14;100.00;99544.47;5054942;28;20047;-77
2023/06/10 05:23:38;;;;;;;18.08;16.38;;;;;;;18.16;99.99;99534.63;5055503;28;20098;-77
2023/06/10 05:26:04;;;;;;;17.98;16.10;;;;;;;18.26;99.95;99540.84;5054870;28;20025;-78
2023/06/10 05:28:29;;;;;;;17.92;16.10;;;;;;;18.48;99.13;99565.50;5054788;28;20032;-77
2023/06/10 05:30:54;;;;;;;17.95;16.23;;;;;;;18.41;98.60;99549.31;5054941;28;20021;-77
2023/06/10 05:33:20;;;;;;;16.50;14.90;;;;;;;18.65;98.27;99565.78;5054721;28;20041;-77
2023/06/10 05:35:45;;;;;;;16.80;15.18;;;;;;;18.52;97.25;99527.34;5054458;28;20075;-76
2023/06/10 05:38:11;;;;;;;16.33;14.60;;;;;;;18.85;95.57;99560.72;5054375;28;20029;-78
2023/06/10 05:40:36;;;;;;;14.80;13.30;;;;;;;18.88;94.82;99552.56;5054340;28;20659;-77
2023/06/10 05:43:01;;;;;;;16.40;14.80;;;;;;;19.00;94.80;99567.34;5053465;28;20033;-78
2023/06/10 05:45:27;;;;;;;14.85;13.35;;;;;;;18.95;93.69;99557.19;5054571;28;20025;-78
2023/06/10 05:47:53;;;;;;;15.35;13.93;;;;;;;19.02;93.50;99546.97;5054416;28;20029;-77
2023/06/10 05:50:18;;;;;;;15.05;13.60;;;;;;;19.11;93.49;99562.03;5054241;28;20025;-78
2023/06/10 05:52:43;;;;;;;16.55;13.50;;;;;;;19.31;93.43;99578.03;5054219;28;20116;-77
2023/06/10 05:55:09;;;;;;;16.60;15.00;;;;;;;19.23;93.08;99559.34;5054316;28;20037;-78
2023/06/10 05:57:35;;;;;;;16.77;15.18;;;;;;;19.36;92.98;99563.47;5054328;28;20029;-78
2023/06/10 06:00:00;;;;;;;17.38;15.68;;;;;;;19.37;92.71;99562.47;5054383;28;20027;-78
2023/06/10 06:02:25;;;;;;;16.50;14.82;;;;;;;19.39;92.29;99571.13;5054069;28;20025;-77
2023/06/10 06:04:51;;;;;;;15.27;13.88;;;;;;;19.43;92.65;99559.34;5054216;28;20412;-77
2023/06/10 06:07:16;;;;;;;16.23;14.60;;;;;;;19.63;92.25;99584.06;5053875;28;20483;-78
2023/06/10 06:09:41;;;;;;;15.98;14.50;;;;;;;19.65;92.08;99570.75;5050664;28;20451;-78
2023/06/10 06:12:07;;;;;;;16.73;15.23;;;;;;;19.73;91.48;99570.94;5049483;28;20037;-78
2023/06/10 06:14:37;;;;;;;16.40;14.75;;;;;;;19.78;91.43;99576.66;5041603;28;20021;-78
2023/06/10 06:17:03;;;;;;;17.83;16.13;;;;;;;19.76;91.19;99572.44;5045016;28;20053;-78
2023/06/10 06:19:28;;;;;;;17.83;15.93;;;;;;;19.71;91.53;99587.88;5048409;28;20056;-78
2023/06/10 06:21:53;;;;;;;16.30;14.80;;;;;;;19.88;92.31;99605.75;5040581;28;20025;-78
2023/06/10 06:24:19;;;;;;;19.88;16.83;;;;;;;19.75;92.21;99586.66;5039505;28;20028;-78
2023/06/10 06:26:45;;;;;;;16.83;15.23;;;;;;;19.81;92.31;99589.59;5045158;28;20036;-78
2023/06/10 06:29:10;;;;;;;20.20;18.20;;;;;;;19.92;92.37;99604.53;5041524;28;20037;-78
2023/06/10 06:31:36;;;;;;;20.75;17.70;;;;;;;19.82;92.83;99582.50;5035838;28;20053;-78
2023/06/10 06:34:01;;;;;;;19.10;17.40;;;;;;;19.84;92.24;99585.84;5033315;28;20053;-78
2023/06/10 06:36:27;;;;;;;18.10;16.45;;;;;;;20.08;91.95;99609.34;5033440;28;20108;-78
2023/06/10 06:38:52;;;;;;;18.75;17.05;;;;;;;20.01;91.23;99590.50;5033598;28;20072;-77
2023/06/10 06:41:17;;;;;;;21.08;19.08;;;;;;;20.18;90.26;99615.47;5032307;28;20105;-78
2023/06/10 06:43:43;;;;;;;21.13;19.23;;;;;;;20.21;90.71;99614.41;5033777;28;20041;-78
2023/06/10 06:46:09;;;;;;;19.92;18.13;;;;;;;20.32;90.99;99620.44;5033790;28;20080;-78
2023/06/10 06:48:35;;;;;;;20.02;18.13;;;;;;;20.47;90.11;99606.81;5033261;28;20033;-78
2023/06/10 06:51:00;;;;;;;21.27;19.27;;;;;;;20.72;88.94;99598.38;5033084;28;20033;-78
2023/06/10 06:53:25;;;;;;;18.73;17.02;;;;;;;21.17;86.89;99613.75;5032774;28;20036;-78
2023/06/10 06:55:51;;;;;;;20.83;18.85;;;;;;;21.43;85.59;99595.47;5033081;28;20021;-78
2023/06/10 06:58:16;;;;;;;18.55;16.67;;;;;;;21.99;84.25;99607.03;5033158;28;20032;-78
2023/06/10 07:00:42;;;;;;;17.40;15.70;;;;;;;22.69;81.46;99615.38;5033172;28;20052;-78
2023/06/10 07:03:07;;;;;;;17.08;15.48;;;;;;;23.13;79.79;99622.50;5032929;28;20469;-78
2023/06/10 07:05:33;;;;;;;14.73;13.32;;;;;;;23.90;78.17;99604.97;5032927;28;20118;-78
2023/06/10 07:07:58;;;;;;;15.95;14.27;;;;;;;24.80;75.13;99617.78;5033040;28;20083;-78
2023/06/10 07:10:25;;;;;;;18.92;14.48;;;;;;;25.02;73.04;99608.31;5032635;28;20413;-78
2023/06/10 07:12:51;;;;;;;15.25;13.75;;;;;;;25.30;72.17;99620.34;5033172;28;20033;-78
2023/06/10 07:15:17;;;;;;;14.75;13.35;;;;;;;25.29;70.79;99602.72;5032591;28;20029;-79
2023/06/10 07:17:42;;;;;;;13.90;12.52;;;;;;;26.28;67.53;99619.34;5032816;28;20084;-78
2023/06/10 07:20:08;;;;;;;12.82;11.73;;;;;;;27.35;65.82;99623.09;5032666;28;20022;-79
2023/06/10 07:22:33;;;;;;;13.23;11.98;;;;;;;27.99;62.55;99646.75;5032413;28;20060;-79
2023/06/10 07:24:58;;;;;;;13.55;12.25;;;;;;;28.59;60.64;99618.91;5032724;28;20053;-79
2023/06/10 07:27:24;;;;;;;11.52;10.63;;;;;;;28.92;58.88;99631.84;5033332;28;20408;-79
2023/06/10 07:29:51;;;;;;;12.60;11.60;;;;;;;29.12;58.68;99651.69;5040125;28;20024;-79
2023/06/10 07:32:16;;;;;;;12.40;11.32;;;;;;;29.51;58.46;99656.56;5051058;28;20100;-78
2023/06/10 07:34:42;;;;;;;12.98;11.73;;;;;;;29.67;57.63;99658.16;5052087;28;20076;-79
2023/06/10 07:37:08;;;;;;;12.80;11.60;;;;;;;29.92;56.92;99663.06;5052380;28;20419;-79
2023/06/10 07:39:33;;;;;;;12.55;11.55;;;;;;;29.61;57.87;99645.50;5051978;28;20029;-79
2023/06/10 07:41:59;;;;;;;14.52;13.23;;;;;;;29.72;56.56;99657.59;5052395;28;20033;-78
2023/06/10 07:44:24;;;;;;;16.92;15.20;;;;;;;28.98;58.73;99661.41;5052126;28;20044;-78
2023/06/10 07:46:50;;;;;;;15.15;13.80;;;;;;;28.13;61.43;99661.13;5051936;28;20151;-75
2023/06/10 07:49:15;;;;;;;15.15;13.95;;;;;;;27.64;62.88;99650.88;5052067;28;20040;-75
2023/06/10 07:51:40;;;;;;;18.83;16.92;;;;;;;27.36;63.01;99654.16;5051367;28;20024;-76
2023/06/10 07:54:06;;;;;;;17.08;15.48;;;;;;;27.25;65.17;99668.78;5051790;28;20465;-75
2023/06/10 07:56:31;;;;;;;18.17;16.58;;;;;;;28.00;63.48;99651.91;5052019;28;20094;-76
2023/06/10 07:58:57;;;;;;;18.63;16.92;;;;;;;28.72;61.66;99669.16;5052168;28;20036;-79
2023/06/10 08:01:23;;;;;;;17.30;15.75;;;;;;;29.10;60.46;99642.97;5051852;28;20059;-83
2023/06/10 08:03:48;;;;;;;18.40;16.70;;;;;;;29.48;59.65;99662.31;5052042;28;20037;-83
2023/06/10 08:06:14;;;;;;;18.42;16.92;;;;;;;29.60;59.62;99673.38;5051339;28;20043;-80
2023/06/10 08:08:43;;;;;;;23.27;21.27;;;;;;;29.11;60.22;99662.56;5051556;28;20044;-80
2023/06/10 08:11:11;;;;;;;19.02;17.45;;;;;;;28.85;61.47;99677.34;5051854;28;20380;-80
2023/06/10 08:13:37;;;;;;;22.58;20.67;;;;;;;28.45;62.79;99658.09;5051789;28;20021;-80
2023/06/10 08:16:03;;;;;;;24.35;22.10;;;;;;;27.60;63.87;99658.44;5051921;28;20059;-80
2023/06/10 08:18:28;;;;;;;21.98;20.02;;;;;;;27.45;65.26;99677.16;5051586;28;20025;-75
2023/06/10 08:20:54;;;;;;;20.67;18.88;;;;;;;27.42;65.77;99684.69;5051532;28;20590;-75
2023/06/10 08:23:20;;;;;;;22.40;20.30;;;;;;;27.26;65.89;99686.50;5051506;28;20469;-76
2023/06/10 08:25:45;;;;;;;20.55;18.85;;;;;;;26.97;66.79;99671.13;5051863;28;20071;-76
2023/06/10 08:28:10;;;;;;;22.38;20.20;;;;;;;26.38;67.46;99655.53;5052016;28;20032;-76
2023/06/10 08:30:36;;;;;;;24.30;22.00;;;;;;;26.24;68.43;99692.78;5051714;28;20017;-76
2023/06/10 08:33:01;;;;;;;20.52;18.65;;;;;;;25.92;69.70;99678.53;5051699;28;20053;-76
2023/06/10 08:35:26;;;;;;;22.90;20.90;;;;;;;25.74;70.12;99659.97;5051713;28;20079;-77
2023/06/10 08:37:51;;;;;;;19.40;17.73;;;;;;;25.88;70.72;99685.19;5051634;28;20033;-76
2023/06/10 08:40:17;;;;;;;24.02;21.83;;;;;;;25.88;70.15;99688.69;5051973;28;20025;-76
2023/06/10 08:42:53;;;;;;;21.70;20.00;;;;;;;25.76;69.58;99676.66;5050918;28;20032;-76
2023/06/10 08:45:18;;;;;;;22.90;20.73;;;;;;;25.76;69.51;99691.84;5041979;28;20026;-76
2023/06/10 08:47:46;;;;;;;19.65;17.95;;;;;;;25.70;69.60;99687.16;5039914;28;20052;-76
2023/06/10 08:50:12;;;;;;;18.45;16.65;;;;;;;25.49;69.81;99677.84;5041490;28;20028;-76
2023/06/10 08:52:40;;;;;;;18.67;17.02;;;;;;;25.49;69.18;99680.50;5031576;28;20466;-76
2023/06/10 08:55:15;;;;;;;18.48;16.77;;;;;;;25.53;69.75;99683.69;5031607;28;20027;-76
2023/06/10 08:57:42;;;;;;;17.05;15.52;;;;;;;25.73;69.82;99692.19;5031419;28;20382;-76
2023/06/10 09:00:08;;;;;;;16.65;14.95;;;;;;;25.68;68.83;99681.19;5031381;28;20021;-76
2023/06/10 09:02:35;;;;;;;17.63;16.10;;;;;;;25.36;67.61;99665.00;5031087;28;20037;-76
2023/06/10 09:05:01;;;;;;;16.27;14.55;;;;;;;25.12;67.70;99675.66;5031353;28;20500;-76
2023/06/10 09:07:31;;;;;;;15.52;13.05;;;;;;;25.14;66.56;99684.31;5031101;28;20048;-76
2023/06/10 09:09:57;;;;;;;14.77;13.38;;;;;;;25.08;66.75;99684.97;5031516;28;20085;-76
2023/06/10 09:12:23;;;;;;;15.13;13.48;;;;;;;24.96;67.33;99670.28;5031144;28;20037;-76
2023/06/10 09:14:48;;;;;;;14.65;13.15;;;;;;;24.87;67.54;99666.75;5031389;28;20067;-76
2023/06/10 09:17:13;;;;;;;13.32;12.23;;;;;;;24.86;68.50;99670.41;5031963;28;20076;-76
2023/06/10 09:19:40;;;;;;;13.85;12.55;;;;;;;24.93;68.14;99671.41;5034698;28;20032;-76
2023/06/10 09:22:05;;;;;;;15.65;14.30;;;;;;;24.95;67.97;99663.28;5034872;28;20026;-76
2023/06/10 09:24:31;;;;;;;14.38;13.00;;;;;;;24.85;68.83;99642.94;5034815;28;20459;-76
2023/06/10 09:27:07;;;;;;;14.23;12.82;;;;;;;25.14;68.76;99660.34;5034898;28;20056;-76
2023/06/10 09:29:53;;;;;;;13.65;12.43;;;;;;;25.06;68.30;99637.13;5034575;28;20033;-76
2023/06/10 09:32:19;;;;;;;13.70;12.40;;;;;;;25.20;66.66;99658.81;5034995;28;20477;-76
2023/06/10 09:34:45;;;;;;;12.73;11.48;;;;;;;25.12;66.63;99641.03;5034528;28;20057;-76
2023/06/10 09:37:12;;;;;;;12.30;10.93;;;;;;;25.32;66.43;99652.16;5034681;28;20477;-76
2023/06/10 09:39:37;;;;;;;12.10;10.90;;;;;;;25.38;65.43;99644.34;5034236;28;20568;-76
2023/06/10 09:42:16;;;;;;;12.57;11.38;;;;;;;25.46;63.88;99648.03;5034507;28;20108;-76
2023/06/10 09:44:41;;;;;;;10.35;9.35;;;;;;;25.49;64.79;99639.66;5034131;28;20488;-76
2023/06/10 09:47:07;;;;;;;10.75;9.68;;;;;;;25.64;62.70;99641.50;5034593;28;20079;-76
2023/06/10 09:49:32;;;;;;;11.40;10.32;;;;;;;25.73;64.31;99661.00;5034079;28;20022;-76
2023/06/10 09:51:57;;;;;;;10.27;9.38;;;;;;;25.64;63.48;99649.50;5034547;28;20486;-76
2023/06/10 09:54:23;;;;;;;9.88;8.98;;;;;;;25.58;62.50;99663.53;5034246;28;20021;-76
2023/06/10 09:56:51;;;;;;;10.13;9.07;;;;;;;25.45;62.37;99649.00;5033776;28;20025;-76
2023/06/10 09:59:27;;;;;;;8.90;7.97;;;;;;;25.54;62.35;99642.69;5033987;28;20033;-76
2023/06/10 10:01:56;;;;;;;9.10;8.35;;;;;;;25.57;61.89;99651.16;5034099;28;20607;-76
2023/06/10 10:04:25;;;;;;;8.98;8.10;;;;;;;25.57;59.67;99658.34;5033997;28;20029;-76
2023/06/10 10:06:51;;;;;;;8.82;7.95;;;;;;;25.49;60.00;99645.84;5033724;28;20112;-76
2023/06/10 10:09:16;;;;;;;8.90;8.10;;;;;;;25.56;58.96;99660.19;5040598;28;20227;-76
2023/06/10 10:11:43;;;;;;;9.38;7.68;;;;;;;25.51;59.30;99643.84;5037697;28;20026;-76
2023/06/10 10:14:09;;;;;;;8.73;7.82;;;;;;;25.62;59.30;99643.50;5041040;28;20093;-76
2023/06/10 10:16:41;;;;;;;8.63;7.82;;;;;;;25.59;59.63;99625.19;5034394;28;20034;-81
2023/06/10 10:19:32;;;;;;;8.82;8.13;;;;;;;25.82;58.81;99649.34;5036724;28;20060;-76
2023/06/10 10:22:10;;;;;;;11.48;8.43;;;;;;;25.77;59.22;99635.69;5031242;28;20121;-77
2023/06/10 10:24:44;;;;;;;8.60;7.80;;;;;;;25.88;59.43;99624.66;5031056;28;20056;-77
2023/06/10 10:27:27;;;;;;;8.98;8.18;;;;;;;25.96;58.76;99613.13;5031270;28;20069;-77
2023/06/10 10:29:54;;;;;;;8.90;8.10;;;;;;;26.12;57.81;99639.78;5050580;28;20417;-77
2023/06/10 10:32:28;;;;;;;9.20;7.57;;;;;;;25.90;55.11;99613.81;5050924;28;20535;-76
2023/06/10 10:35:02;;;;;;;7.95;7.25;;;;;;;25.81;55.57;99614.81;5050700;28;20045;-77
2023/06/10 10:37:28;;;;;;;8.48;6.88;;;;;;;25.71;53.11;99611.50;5050887;28;20021;-77
2023/06/10 10:39:54;;;;;;;6.97;6.30;;;;;;;25.83;53.29;99635.00;5050721;28;20553;-77
2023/06/10 10:42:20;;;;;;;8.68;7.07;;;;;;;25.71;53.05;99632.84;5050758;28;20033;-77
2023/06/10 10:44:46;;;;;;;7.47;6.80;;;;;;;25.71;54.36;99622.16;5050606;28;20086;-77
2023/06/10 10:47:13;;;;;;;8.63;6.57;;;;;;;25.91;54.50;99617.28;5050546;28;20111;-77
2023/06/10 10:49:42;;;;;;;8.75;6.57;;;;;;;26.02;53.83;99622.28;5050468;28;20025;-77
2023/06/10 10:52:12;;;;;;;9.25;6.50;;;;;;;26.06;53.19;99599.59;5050743;28;20049;-77
2023/06/10 10:54:38;;;;;;;7.45;6.35;;;;;;;26.15;52.12;99614.56;5050297;28;20179;-77
2023/06/10 10:57:10;;;;;;;10.73;7.13;;;;;;;26.17;50.73;99628.56;5050593;28;20041;-77
2023/06/10 11:00:05;;;;;;;7.10;6.43;;;;;;;26.15;50.00;99616.41;5037137;28;20037;-77
2023/06/10 11:02:38;;;;;;;9.80;6.53;;;;;;;26.00;50.21;99595.78;5032174;28;20044;-77
2023/06/10 11:05:05;;;;;;;7.35;6.45;;;;;;;26.01;49.39;99593.94;5032842;28;20477;-77
2023/06/10 11:07:31;;;;;;;9.63;7.05;;;;;;;26.16;48.26;99610.88;5032447;28;20060;-77
2023/06/10 11:10:08;;;;;;;7.03;6.28;;;;;;;26.18;49.12;99610.72;5032669;28;20031;-76
2023/06/10 11:12:45;;;;;;;6.88;6.18;;;;;;;26.16;48.03;99613.53;5032789;28;20037;-77